sensor_id;sensor_type;location;lat;lon;timestamp;temperature;humidity
46366;DHT22;32073;49.166;8.076;2022-08-11T00:00:17;25.20;28.80
46366;DHT22;32073;49.166;8.076;2022-08-11T00:04:21;25.10;28.80
46366;DHT22;32073;49.166;8.076;2022-08-11T00:08:26;25.10;28.80
46366;DHT22;32073;49.166;8.076;2022-08-11T00:12:29;25.10;28.90
46366;DHT22;32073;49.166;8.076;2022-08-11T00:16:31;25.00;29.00
46366;DHT22;32073;49.166;8.076;2022-08-11T00:20:35;25.00;29.00
46366;DHT22;32073;49.166;8.076;2022-08-11T00:24:39;24.90;29.10
46366;DHT22;32073;49.166;8.076;2022-08-11T00:28:41;24.90;29.20
46366;DHT22;32073;49.166;8.076;2022-08-11T00:32:45;24.90;29.20
46366;DHT22;32073;49.166;8.076;2022-08-11T00:41:10;24.80;29.30
46366;DHT22;32073;49.166;8.076;2022-08-11T00:45:28;24.80;29.40
46366;DHT22;32073;49.166;8.076;2022-08-11T00:49:57;24.70;29.50
46366;DHT22;32073;49.166;8.076;2022-08-11T01:03:17;24.60;29.40
46366;DHT22;32073;49.166;8.076;2022-08-11T01:07:35;24.60;29.60
46366;DHT22;32073;49.166;8.076;2022-08-11T01:30:07;24.30;29.90
46366;DHT22;32073;49.166;8.076;2022-08-11T01:43:49;24.20;30.00
46366;DHT22;32073;49.166;8.076;2022-08-11T01:48:47;24.20;30.00
46366;DHT22;32073;49.166;8.076;2022-08-11T01:53:08;24.10;30.10
46366;DHT22;32073;49.166;8.076;2022-08-11T01:57:53;24.10;30.00
46366;DHT22;32073;49.166;8.076;2022-08-11T02:11:31;24.00;30.30
46366;DHT22;32073;49.166;8.076;2022-08-11T02:15:38;23.90;30.30
46366;DHT22;32073;49.166;8.076;2022-08-11T02:24:32;23.90;30.90
46366;DHT22;32073;49.166;8.076;2022-08-11T02:33:19;23.70;30.90
46366;DHT22;32073;49.166;8.076;2022-08-11T02:41:47;23.70;31.20
46366;DHT22;32073;49.166;8.076;2022-08-11T02:46:25;23.70;31.20
46366;DHT22;32073;49.166;8.076;2022-08-11T02:50:32;23.60;31.80
46366;DHT22;32073;49.166;8.076;2022-08-11T02:55:01;23.60;31.10
46366;DHT22;32073;49.166;8.076;2022-08-11T02:59:26;23.60;31.50
46366;DHT22;32073;49.166;8.076;2022-08-11T03:04:07;23.50;31.20
46366;DHT22;32073;49.166;8.076;2022-08-11T03:12:44;23.50;31.50
46366;DHT22;32073;49.166;8.076;2022-08-11T03:21:31;23.40;31.80
46366;DHT22;32073;49.166;8.076;2022-08-11T03:26:13;23.40;32.00
46366;DHT22;32073;49.166;8.076;2022-08-11T03:30:38;23.40;32.00
46366;DHT22;32073;49.166;8.076;2022-08-11T03:34:44;23.30;32.00
46366;DHT22;32073;49.166;8.076;2022-08-11T03:56:51;23.20;32.40
46366;DHT22;32073;49.166;8.076;2022-08-11T04:24:43;23.00;32.80
46366;DHT22;32073;49.166;8.076;2022-08-11T04:29:30;23.00;33.10
46366;DHT22;32073;49.166;8.076;2022-08-11T04:38:13;22.90;33.20
46366;DHT22;32073;49.166;8.076;2022-08-11T04:42:53;22.90;33.30
46366;DHT22;32073;49.166;8.076;2022-08-11T04:52:29;22.90;33.50
46366;DHT22;32073;49.166;8.076;2022-08-11T04:57:02;22.90;33.40
46366;DHT22;32073;49.166;8.076;2022-08-11T05:02:25;23.10;34.20
46366;DHT22;32073;49.166;8.076;2022-08-11T05:06:56;23.70;34.50
46366;DHT22;32073;49.166;8.076;2022-08-11T05:15:46;24.90;34.60
46366;DHT22;32073;49.166;8.076;2022-08-11T05:20:11;25.70;34.40
46366;DHT22;32073;49.166;8.076;2022-08-11T05:24:49;26.20;34.10
46366;DHT22;32073;49.166;8.076;2022-08-11T05:29:26;26.60;33.80
46366;DHT22;32073;49.166;8.076;2022-08-11T05:34:27;27.00;33.40
46366;DHT22;32073;49.166;8.076;2022-08-11T05:38:57;27.20;33.20
46366;DHT22;32073;49.166;8.076;2022-08-11T05:43:21;27.30;32.80
46366;DHT22;32073;49.166;8.076;2022-08-11T05:47:42;27.10;32.50
46366;DHT22;32073;49.166;8.076;2022-08-11T05:52:02;27.00;32.30
46366;DHT22;32073;49.166;8.076;2022-08-11T05:56:22;26.80;32.20
46366;DHT22;32073;49.166;8.076;2022-08-11T06:00:24;26.50;32.20
46366;DHT22;32073;49.166;8.076;2022-08-11T06:04:26;26.30;32.30
46366;DHT22;32073;49.166;8.076;2022-08-11T06:08:29;26.10;32.40
46366;DHT22;32073;49.166;8.076;2022-08-11T06:12:34;25.90;32.50
46366;DHT22;32073;49.166;8.076;2022-08-11T06:16:37;25.70;32.60
46366;DHT22;32073;49.166;8.076;2022-08-11T06:20:48;25.50;32.70
46366;DHT22;32073;49.166;8.076;2022-08-11T06:24:54;25.40;32.80
46366;DHT22;32073;49.166;8.076;2022-08-11T06:28:58;25.30;32.90
46366;DHT22;32073;49.166;8.076;2022-08-11T06:33:02;25.20;33.00
46366;DHT22;32073;49.166;8.076;2022-08-11T06:41:58;25.10;33.10
46366;DHT22;32073;49.166;8.076;2022-08-11T06:46:06;25.10;33.10
46366;DHT22;32073;49.166;8.076;2022-08-11T06:50:08;25.10;33.30
46366;DHT22;32073;49.166;8.076;2022-08-11T06:59:11;25.00;33.50
46366;DHT22;32073;49.166;8.076;2022-08-11T07:03:42;24.90;33.50
46366;DHT22;32073;49.166;8.076;2022-08-11T07:12:44;24.90;33.70
46366;DHT22;32073;49.166;8.076;2022-08-11T07:17:07;24.90;33.70
46366;DHT22;32073;49.166;8.076;2022-08-11T07:21:15;25.00;33.90
46366;DHT22;32073;49.166;8.076;2022-08-11T07:25:42;25.00;34.00
46366;DHT22;32073;49.166;8.076;2022-08-11T07:30:09;25.00;34.10
46366;DHT22;32073;49.166;8.076;2022-08-11T07:34:23;25.10;34.20
46366;DHT22;32073;49.166;8.076;2022-08-11T07:38:38;25.20;34.20
46366;DHT22;32073;49.166;8.076;2022-08-11T07:42:44;25.30;34.40
46366;DHT22;32073;49.166;8.076;2022-08-11T07:46:47;25.30;34.40
46366;DHT22;32073;49.166;8.076;2022-08-11T07:51:08;25.40;34.40
46366;DHT22;32073;49.166;8.076;2022-08-11T07:55:27;25.40;34.30
46366;DHT22;32073;49.166;8.076;2022-08-11T07:59:31;25.50;34.50
46366;DHT22;32073;49.166;8.076;2022-08-11T08:03:50;25.50;34.40
46366;DHT22;32073;49.166;8.076;2022-08-11T08:08:11;25.60;34.30
46366;DHT22;32073;49.166;8.076;2022-08-11T08:12:33;25.70;34.40
46366;DHT22;32073;49.166;8.076;2022-08-11T08:16:54;25.70;34.40
46366;DHT22;32073;49.166;8.076;2022-08-11T08:21:14;25.80;34.50
46366;DHT22;32073;49.166;8.076;2022-08-11T08:25:16;25.90;34.60
46366;DHT22;32073;49.166;8.076;2022-08-11T08:29:18;26.00;34.70
46366;DHT22;32073;49.166;8.076;2022-08-11T08:33:39;26.10;34.60
46366;DHT22;32073;49.166;8.076;2022-08-11T08:37:41;26.10;34.60
46366;DHT22;32073;49.166;8.076;2022-08-11T08:41:42;26.20;34.50
46366;DHT22;32073;49.166;8.076;2022-08-11T08:45:44;26.30;34.60
46366;DHT22;32073;49.166;8.076;2022-08-11T08:49:47;26.40;34.60
46366;DHT22;32073;49.166;8.076;2022-08-11T08:53:51;26.50;34.70
46366;DHT22;32073;49.166;8.076;2022-08-11T08:57:53;26.60;34.70
46366;DHT22;32073;49.166;8.076;2022-08-11T09:01:59;26.70;34.70
46366;DHT22;32073;49.166;8.076;2022-08-11T09:06:02;26.70;34.60
46366;DHT22;32073;49.166;8.076;2022-08-11T09:10:03;26.90;34.40
46366;DHT22;32073;49.166;8.076;2022-08-11T09:14:05;27.00;34.40
46366;DHT22;32073;49.166;8.076;2022-08-11T09:18:07;27.10;34.40
46366;DHT22;32073;49.166;8.076;2022-08-11T09:22:09;27.20;34.30
46366;DHT22;32073;49.166;8.076;2022-08-11T09:26:29;27.20;34.20
46366;DHT22;32073;49.166;8.076;2022-08-11T09:30:51;27.40;34.20
46366;DHT22;32073;49.166;8.076;2022-08-11T09:34:55;27.40;34.10
46366;DHT22;32073;49.166;8.076;2022-08-11T09:38:56;27.50;34.00
46366;DHT22;32073;49.166;8.076;2022-08-11T09:43:18;27.70;34.00
46366;DHT22;32073;49.166;8.076;2022-08-11T09:47:39;27.70;33.70
46366;DHT22;32073;49.166;8.076;2022-08-11T09:51:42;27.90;33.50
46366;DHT22;32073;49.166;8.076;2022-08-11T09:55:44;27.90;33.40
46366;DHT22;32073;49.166;8.076;2022-08-11T09:59:46;28.00;33.20
46366;DHT22;32073;49.166;8.076;2022-08-11T10:03:47;28.10;33.50
46366;DHT22;32073;49.166;8.076;2022-08-11T10:07:50;28.20;33.30
46366;DHT22;32073;49.166;8.076;2022-08-11T10:11:56;28.30;33.10
46366;DHT22;32073;49.166;8.076;2022-08-11T10:16:02;28.30;33.00
46366;DHT22;32073;49.166;8.076;2022-08-11T10:20:05;28.40;33.00
46366;DHT22;32073;49.166;8.076;2022-08-11T10:24:09;28.50;32.80
46366;DHT22;32073;49.166;8.076;2022-08-11T10:28:30;28.60;32.80
46366;DHT22;32073;49.166;8.076;2022-08-11T10:32:32;28.70;32.90
46366;DHT22;32073;49.166;8.076;2022-08-11T10:36:52;28.80;32.30
46366;DHT22;32073;49.166;8.076;2022-08-11T10:40:54;28.90;32.40
46366;DHT22;32073;49.166;8.076;2022-08-11T10:45:14;28.90;31.60
46366;DHT22;32073;49.166;8.076;2022-08-11T10:49:34;29.10;31.80
46366;DHT22;32073;49.166;8.076;2022-08-11T10:53:38;29.30;31.60
46366;DHT22;32073;49.166;8.076;2022-08-11T10:57:59;29.30;31.40
46366;DHT22;32073;49.166;8.076;2022-08-11T11:02:18;29.40;31.10
46366;DHT22;32073;49.166;8.076;2022-08-11T11:07:06;29.50;30.90
46366;DHT22;32073;49.166;8.076;2022-08-11T11:10:57;29.60;31.50
46366;DHT22;32073;49.166;8.076;2022-08-11T11:15:01;29.60;30.50
46366;DHT22;32073;49.166;8.076;2022-08-11T11:19:23;29.60;30.30
46366;DHT22;32073;49.166;8.076;2022-08-11T11:23:27;29.60;30.20
46366;DHT22;32073;49.166;8.076;2022-08-11T11:32:30;29.80;30.10
46366;DHT22;32073;49.166;8.076;2022-08-11T11:37:03;29.90;30.00
46366;DHT22;32073;49.166;8.076;2022-08-11T11:41:04;29.90;30.00
46366;DHT22;32073;49.166;8.076;2022-08-11T11:45:24;30.00;29.70
46366;DHT22;32073;49.166;8.076;2022-08-11T11:49:27;30.00;29.70
46366;DHT22;32073;49.166;8.076;2022-08-11T11:53:29;30.00;29.70
46366;DHT22;32073;49.166;8.076;2022-08-11T11:57:30;30.10;29.70
46366;DHT22;32073;49.166;8.076;2022-08-11T12:01:51;30.10;29.70
46366;DHT22;32073;49.166;8.076;2022-08-11T12:05:53;30.20;29.80
46366;DHT22;32073;49.166;8.076;2022-08-11T12:09:56;30.20;29.30
46366;DHT22;32073;49.166;8.076;2022-08-11T12:14:03;30.30;29.40
46366;DHT22;32073;49.166;8.076;2022-08-11T12:18:05;30.30;29.20
46366;DHT22;32073;49.166;8.076;2022-08-11T12:22:06;30.40;29.60
46366;DHT22;32073;49.166;8.076;2022-08-11T12:26:25;30.50;29.20
46366;DHT22;32073;49.166;8.076;2022-08-11T12:30:58;30.50;28.90
46366;DHT22;32073;49.166;8.076;2022-08-11T12:34:59;30.60;28.90
46366;DHT22;32073;49.166;8.076;2022-08-11T12:39:05;30.60;28.80
46366;DHT22;32073;49.166;8.076;2022-08-11T12:43:20;30.70;28.60
46366;DHT22;32073;49.166;8.076;2022-08-11T12:47:46;30.70;28.70
46366;DHT22;32073;49.166;8.076;2022-08-11T12:52:08;30.80;28.50
46366;DHT22;32073;49.166;8.076;2022-08-11T12:56:12;30.80;28.20
46366;DHT22;32073;49.166;8.076;2022-08-11T13:00:32;30.90;28.10
46366;DHT22;32073;49.166;8.076;2022-08-11T13:04:52;31.00;28.00
46366;DHT22;32073;49.166;8.076;2022-08-11T13:08:58;31.00;28.00
46366;DHT22;32073;49.166;8.076;2022-08-11T13:13:00;31.10;28.00
46366;DHT22;32073;49.166;8.076;2022-08-11T13:17:01;31.20;27.90
46366;DHT22;32073;49.166;8.076;2022-08-11T13:21:21;31.20;27.80
46366;DHT22;32073;49.166;8.076;2022-08-11T13:25:24;31.30;27.40
46366;DHT22;32073;49.166;8.076;2022-08-11T13:29:27;31.30;27.10
46366;DHT22;32073;49.166;8.076;2022-08-11T13:33:29;31.40;27.20
46366;DHT22;32073;49.166;8.076;2022-08-11T13:37:31;31.50;26.90
46366;DHT22;32073;49.166;8.076;2022-08-11T13:41:34;31.50;26.80
46366;DHT22;32073;49.166;8.076;2022-08-11T13:45:44;31.50;26.80
46366;DHT22;32073;49.166;8.076;2022-08-11T13:49:47;31.60;26.80
46366;DHT22;32073;49.166;8.076;2022-08-11T13:53:48;31.60;26.80
46366;DHT22;32073;49.166;8.076;2022-08-11T13:57:51;31.60;27.00
46366;DHT22;32073;49.166;8.076;2022-08-11T14:01:54;31.70;26.50
46366;DHT22;32073;49.166;8.076;2022-08-11T14:05:57;31.70;26.50
46366;DHT22;32073;49.166;8.076;2022-08-11T14:10:00;31.80;26.50
46366;DHT22;32073;49.166;8.076;2022-08-11T14:14:06;31.80;26.60
46366;DHT22;32073;49.166;8.076;2022-08-11T14:18:16;31.80;26.60
46366;DHT22;32073;49.166;8.076;2022-08-11T14:22:19;31.80;26.30
46366;DHT22;32073;49.166;8.076;2022-08-11T14:26:22;31.90;26.20
46366;DHT22;32073;49.166;8.076;2022-08-11T14:30:23;31.90;26.10
46366;DHT22;32073;49.166;8.076;2022-08-11T14:34:43;32.00;26.30
46366;DHT22;32073;49.166;8.076;2022-08-11T14:38:44;32.00;26.10
46366;DHT22;32073;49.166;8.076;2022-08-11T14:42:45;32.00;26.10
46366;DHT22;32073;49.166;8.076;2022-08-11T14:47:05;32.00;26.00
46366;DHT22;32073;49.166;8.076;2022-08-11T14:51:06;32.00;26.00
46366;DHT22;32073;49.166;8.076;2022-08-11T14:55:07;32.10;26.10
46366;DHT22;32073;49.166;8.076;2022-08-11T14:59:27;32.10;26.10
46366;DHT22;32073;49.166;8.076;2022-08-11T15:03:30;32.10;26.00
46366;DHT22;32073;49.166;8.076;2022-08-11T15:07:33;32.20;25.90
46366;DHT22;32073;49.166;8.076;2022-08-11T15:11:34;32.20;25.80
46366;DHT22;32073;49.166;8.076;2022-08-11T15:15:53;32.20;25.80
46366;DHT22;32073;49.166;8.076;2022-08-11T15:20:15;32.20;25.90
46366;DHT22;32073;49.166;8.076;2022-08-11T15:24:36;32.20;25.80
46366;DHT22;32073;49.166;8.076;2022-08-11T15:28:46;32.20;25.50
46366;DHT22;32073;49.166;8.076;2022-08-11T15:33:08;32.20;26.10
46366;DHT22;32073;49.166;8.076;2022-08-11T15:37:29;32.20;25.70
46366;DHT22;32073;49.166;8.076;2022-08-11T15:41:50;32.20;25.70
46366;DHT22;32073;49.166;8.076;2022-08-11T15:46:22;32.20;26.10
46366;DHT22;32073;49.166;8.076;2022-08-11T15:50:32;32.20;25.50
46366;DHT22;32073;49.166;8.076;2022-08-11T15:54:39;32.20;25.50
46366;DHT22;32073;49.166;8.076;2022-08-11T15:58:46;32.20;25.30
46366;DHT22;32073;49.166;8.076;2022-08-11T16:03:07;32.20;25.20
46366;DHT22;32073;49.166;8.076;2022-08-11T16:07:31;32.10;25.20
46366;DHT22;32073;49.166;8.076;2022-08-11T16:11:35;32.00;25.20
46366;DHT22;32073;49.166;8.076;2022-08-11T16:15:39;32.10;25.30
46366;DHT22;32073;49.166;8.076;2022-08-11T16:20:03;32.10;25.20
46366;DHT22;32073;49.166;8.076;2022-08-11T16:24:07;32.10;25.20
46366;DHT22;32073;49.166;8.076;2022-08-11T16:28:11;32.10;25.00
46366;DHT22;32073;49.166;8.076;2022-08-11T16:32:16;32.00;25.00
46366;DHT22;32073;49.166;8.076;2022-08-11T16:36:20;32.00;25.00
46366;DHT22;32073;49.166;8.076;2022-08-11T16:40:42;32.00;25.10
46366;DHT22;32073;49.166;8.076;2022-08-11T16:44:43;32.00;25.10
46366;DHT22;32073;49.166;8.076;2022-08-11T16:49:29;32.00;25.10
46366;DHT22;32073;49.166;8.076;2022-08-11T16:53:49;32.00;24.90
46366;DHT22;32073;49.166;8.076;2022-08-11T16:57:50;31.90;25.10
46366;DHT22;32073;49.166;8.076;2022-08-11T17:02:14;31.90;25.10
46366;DHT22;32073;49.166;8.076;2022-08-11T17:06:37;31.80;24.90
46366;DHT22;32073;49.166;8.076;2022-08-11T17:11:02;31.80;24.90
46366;DHT22;32073;49.166;8.076;2022-08-11T17:15:22;31.80;25.00
46366;DHT22;32073;49.166;8.076;2022-08-11T17:19:50;31.70;24.90
46366;DHT22;32073;49.166;8.076;2022-08-11T17:24:06;31.60;24.90
46366;DHT22;32073;49.166;8.076;2022-08-11T17:28:09;31.60;25.00
46366;DHT22;32073;49.166;8.076;2022-08-11T17:32:17;31.50;25.10
46366;DHT22;32073;49.166;8.076;2022-08-11T17:36:38;31.50;24.90
46366;DHT22;32073;49.166;8.076;2022-08-11T17:40:56;31.40;25.00
46366;DHT22;32073;49.166;8.076;2022-08-11T17:45:22;31.30;25.00
46366;DHT22;32073;49.166;8.076;2022-08-11T17:49:42;31.30;25.00
46366;DHT22;32073;49.166;8.076;2022-08-11T17:53:44;31.30;25.10
46366;DHT22;32073;49.166;8.076;2022-08-11T17:58:04;31.20;25.10
46366;DHT22;32073;49.166;8.076;2022-08-11T18:02:28;31.10;25.10
46366;DHT22;32073;49.166;8.076;2022-08-11T18:06:52;31.10;25.10
46366;DHT22;32073;49.166;8.076;2022-08-11T18:10:54;31.00;25.10
46366;DHT22;32073;49.166;8.076;2022-08-11T18:15:14;30.90;25.20
46366;DHT22;32073;49.166;8.076;2022-08-11T18:19:34;30.80;25.20
46366;DHT22;32073;49.166;8.076;2022-08-11T18:23:54;30.80;25.30
46366;DHT22;32073;49.166;8.076;2022-08-11T18:28:16;30.70;25.20
46366;DHT22;32073;49.166;8.076;2022-08-11T18:32:40;30.60;25.20
46366;DHT22;32073;49.166;8.076;2022-08-11T18:37:03;30.50;25.20
46366;DHT22;32073;49.166;8.076;2022-08-11T18:41:29;30.30;25.20
46366;DHT22;32073;49.166;8.076;2022-08-11T18:45:54;30.30;25.30
46366;DHT22;32073;49.166;8.076;2022-08-11T18:50:17;30.20;25.30
46366;DHT22;32073;49.166;8.076;2022-08-11T18:54:39;30.10;25.40
46366;DHT22;32073;49.166;8.076;2022-08-11T18:59:00;30.00;25.40
46366;DHT22;32073;49.166;8.076;2022-08-11T19:03:21;29.90;25.40
46366;DHT22;32073;49.166;8.076;2022-08-11T19:07:44;29.80;25.40
46366;DHT22;32073;49.166;8.076;2022-08-11T19:12:08;29.70;25.50
46366;DHT22;32073;49.166;8.076;2022-08-11T19:16:29;29.60;25.50
46366;DHT22;32073;49.166;8.076;2022-08-11T19:20:50;29.50;25.50
46366;DHT22;32073;49.166;8.076;2022-08-11T19:25:11;29.40;25.60
46366;DHT22;32073;49.166;8.076;2022-08-11T19:29:31;29.30;25.70
46366;DHT22;32073;49.166;8.076;2022-08-11T19:33:53;29.20;25.80
46366;DHT22;32073;49.166;8.076;2022-08-11T19:38:15;29.10;25.90
46366;DHT22;32073;49.166;8.076;2022-08-11T19:42:36;29.00;26.00
46366;DHT22;32073;49.166;8.076;2022-08-11T19:46:57;29.00;26.10
46366;DHT22;32073;49.166;8.076;2022-08-11T19:51:17;28.90;26.20
46366;DHT22;32073;49.166;8.076;2022-08-11T19:55:38;28.80;26.30
46366;DHT22;32073;49.166;8.076;2022-08-11T19:59:58;28.70;26.30
46366;DHT22;32073;49.166;8.076;2022-08-11T20:04:17;28.60;26.30
46366;DHT22;32073;49.166;8.076;2022-08-11T20:08:40;28.50;26.40
46366;DHT22;32073;49.166;8.076;2022-08-11T20:13:01;28.40;26.40
46366;DHT22;32073;49.166;8.076;2022-08-11T20:17:25;28.40;26.60
46366;DHT22;32073;49.166;8.076;2022-08-11T20:21:46;28.20;26.60
46366;DHT22;32073;49.166;8.076;2022-08-11T20:26:06;28.20;26.80
46366;DHT22;32073;49.166;8.076;2022-08-11T20:30:28;28.10;26.70
46366;DHT22;32073;49.166;8.076;2022-08-11T20:34:47;28.00;26.80
46366;DHT22;32073;49.166;8.076;2022-08-11T20:39:07;27.90;26.80
46366;DHT22;32073;49.166;8.076;2022-08-11T20:43:28;27.90;26.80
46366;DHT22;32073;49.166;8.076;2022-08-11T20:47:51;27.80;26.80
46366;DHT22;32073;49.166;8.076;2022-08-11T20:52:14;27.80;26.90
46366;DHT22;32073;49.166;8.076;2022-08-11T20:56:34;27.70;26.80
46366;DHT22;32073;49.166;8.076;2022-08-11T21:00:54;27.70;26.80
46366;DHT22;32073;49.166;8.076;2022-08-11T21:05:14;27.60;26.80
46366;DHT22;32073;49.166;8.076;2022-08-11T21:09:34;27.60;27.60
46366;DHT22;32073;49.166;8.076;2022-08-11T21:13:54;27.60;27.10
46366;DHT22;32073;49.166;8.076;2022-08-11T21:18:18;27.50;27.00
46366;DHT22;32073;49.166;8.076;2022-08-11T21:22:45;27.40;27.10
46366;DHT22;32073;49.166;8.076;2022-08-11T21:27:09;27.30;27.20
46366;DHT22;32073;49.166;8.076;2022-08-11T21:31:33;27.30;27.00
46366;DHT22;32073;49.166;8.076;2022-08-11T21:35:53;27.30;27.20
46366;DHT22;32073;49.166;8.076;2022-08-11T21:40:14;27.20;27.10
46366;DHT22;32073;49.166;8.076;2022-08-11T21:44:35;27.10;27.20
46366;DHT22;32073;49.166;8.076;2022-08-11T21:48:55;27.10;27.30
46366;DHT22;32073;49.166;8.076;2022-08-11T21:53:15;27.00;27.20
46366;DHT22;32073;49.166;8.076;2022-08-11T21:57:36;27.00;27.40
46366;DHT22;32073;49.166;8.076;2022-08-11T22:01:57;26.90;27.90
46366;DHT22;32073;49.166;8.076;2022-08-11T22:06:17;26.90;27.60
46366;DHT22;32073;49.166;8.076;2022-08-11T22:10:38;26.80;27.50
46366;DHT22;32073;49.166;8.076;2022-08-11T22:14:58;26.80;27.70
46366;DHT22;32073;49.166;8.076;2022-08-11T22:19:18;26.80;27.80
46366;DHT22;32073;49.166;8.076;2022-08-11T22:23:39;26.70;27.80
46366;DHT22;32073;49.166;8.076;2022-08-11T22:27:59;26.60;28.00
46366;DHT22;32073;49.166;8.076;2022-08-11T22:32:19;26.70;28.20
46366;DHT22;32073;49.166;8.076;2022-08-11T22:36:40;26.50;28.10
46366;DHT22;32073;49.166;8.076;2022-08-11T22:41:01;26.40;28.20
46366;DHT22;32073;49.166;8.076;2022-08-11T22:45:20;26.40;28.40
46366;DHT22;32073;49.166;8.076;2022-08-11T22:49:41;26.30;28.30
46366;DHT22;32073;49.166;8.076;2022-08-11T22:54:02;26.30;28.40
46366;DHT22;32073;49.166;8.076;2022-08-11T22:58:22;26.20;28.40
46366;DHT22;32073;49.166;8.076;2022-08-11T23:02:42;26.10;28.70
46366;DHT22;32073;49.166;8.076;2022-08-11T23:07:02;26.10;28.20
46366;DHT22;32073;49.166;8.076;2022-08-11T23:11:22;26.10;28.40
46366;DHT22;32073;49.166;8.076;2022-08-11T23:15:41;26.00;28.60
46366;DHT22;32073;49.166;8.076;2022-08-11T23:20:01;26.00;28.40
46366;DHT22;32073;49.166;8.076;2022-08-11T23:24:21;26.00;28.40
46366;DHT22;32073;49.166;8.076;2022-08-11T23:28:41;26.00;28.40
46366;DHT22;32073;49.166;8.076;2022-08-11T23:33:01;25.90;28.40
46366;DHT22;32073;49.166;8.076;2022-08-11T23:37:21;25.90;28.40
46366;DHT22;32073;49.166;8.076;2022-08-11T23:41:42;25.80;28.40
46366;DHT22;32073;49.166;8.076;2022-08-11T23:46:02;25.80;28.50
46366;DHT22;32073;49.166;8.076;2022-08-11T23:50:22;25.80;28.50
46366;DHT22;32073;49.166;8.076;2022-08-11T23:54:43;25.70;28.60
46366;DHT22;32073;49.166;8.076;2022-08-11T23:59:03;25.60;28.50
